sensor_id;sensor_type;location;lat;lon;timestamp;P1;durP1;ratioP1;P2;durP2;ratioP2
44276;SDS011;29973;43.742;1.236;2023-09-30T00:01:54;16.73;;;6.28;;
44276;SDS011;29973;43.742;1.236;2023-09-30T00:04:20;16.38;;;5.72;;
44276;SDS011;29973;43.742;1.236;2023-09-30T00:06:46;18.05;;;6.63;;
44276;SDS011;29973;43.742;1.236;2023-09-30T00:09:11;18.67;;;6.68;;
44276;SDS011;29973;43.742;1.236;2023-09-30T00:11:38;14.38;;;6.40;;
44276;SDS011;29973;43.742;1.236;2023-09-30T00:14:04;14.38;;;5.93;;
44276;SDS011;29973;43.742;1.236;2023-09-30T00:16:30;18.25;;;6.78;;
44276;SDS011;29973;43.742;1.236;2023-09-30T00:18:56;20.33;;;6.80;;
44276;SDS011;29973;43.742;1.236;2023-09-30T00:21:23;15.57;;;6.20;;
44276;SDS011;29973;43.742;1.236;2023-09-30T00:23:49;15.52;;;6.05;;
44276;SDS011;29973;43.742;1.236;2023-09-30T00:26:15;15.63;;;6.97;;
44276;SDS011;29973;43.742;1.236;2023-09-30T00:28:41;21.60;;;6.30;;
44276;SDS011;29973;43.742;1.236;2023-09-30T00:31:07;15.60;;;6.43;;
44276;SDS011;29973;43.742;1.236;2023-09-30T00:33:36;16.10;;;5.88;;
44276;SDS011;29973;43.742;1.236;2023-09-30T00:36:06;16.10;;;6.55;;
44276;SDS011;29973;43.742;1.236;2023-09-30T00:38:33;21.65;;;6.70;;
44276;SDS011;29973;43.742;1.236;2023-09-30T00:40:59;16.08;;;6.43;;
44276;SDS011;29973;43.742;1.236;2023-09-30T00:43:25;14.93;;;6.10;;
44276;SDS011;29973;43.742;1.236;2023-09-30T00:46:13;17.83;;;6.70;;
44276;SDS011;29973;43.742;1.236;2023-09-30T00:48:46;20.25;;;6.63;;
44276;SDS011;29973;43.742;1.236;2023-09-30T00:51:12;15.23;;;6.00;;
44276;SDS011;29973;43.742;1.236;2023-09-30T00:53:38;18.88;;;6.78;;
44276;SDS011;29973;43.742;1.236;2023-09-30T00:56:03;18.38;;;6.55;;
44276;SDS011;29973;43.742;1.236;2023-09-30T00:58:30;17.48;;;6.22;;
44276;SDS011;29973;43.742;1.236;2023-09-30T01:00:56;16.55;;;6.90;;
44276;SDS011;29973;43.742;1.236;2023-09-30T01:03:24;15.63;;;6.57;;
44276;SDS011;29973;43.742;1.236;2023-09-30T01:05:50;16.05;;;6.75;;
44276;SDS011;29973;43.742;1.236;2023-09-30T01:08:16;21.33;;;7.30;;
44276;SDS011;29973;43.742;1.236;2023-09-30T01:10:43;19.17;;;7.07;;
44276;SDS011;29973;43.742;1.236;2023-09-30T01:13:09;18.35;;;6.78;;
44276;SDS011;29973;43.742;1.236;2023-09-30T01:15:35;16.83;;;6.97;;
44276;SDS011;29973;43.742;1.236;2023-09-30T01:18:02;17.85;;;7.20;;
44276;SDS011;29973;43.742;1.236;2023-09-30T01:20:28;13.38;;;5.82;;
44276;SDS011;29973;43.742;1.236;2023-09-30T01:22:54;19.65;;;7.30;;
44276;SDS011;29973;43.742;1.236;2023-09-30T01:25:22;18.35;;;6.78;;
44276;SDS011;29973;43.742;1.236;2023-09-30T01:27:48;19.75;;;6.90;;
44276;SDS011;29973;43.742;1.236;2023-09-30T01:30:16;17.10;;;6.82;;
44276;SDS011;29973;43.742;1.236;2023-09-30T01:32:43;19.83;;;7.03;;
44276;SDS011;29973;43.742;1.236;2023-09-30T01:35:09;20.95;;;5.97;;
44276;SDS011;29973;43.742;1.236;2023-09-30T01:37:35;17.88;;;6.90;;
44276;SDS011;29973;43.742;1.236;2023-09-30T01:40:01;19.45;;;7.35;;
44276;SDS011;29973;43.742;1.236;2023-09-30T01:42:29;18.40;;;6.68;;
44276;SDS011;29973;43.742;1.236;2023-09-30T01:44:54;17.25;;;6.85;;
44276;SDS011;29973;43.742;1.236;2023-09-30T01:47:22;19.33;;;6.70;;
44276;SDS011;29973;43.742;1.236;2023-09-30T01:49:47;20.63;;;6.65;;
44276;SDS011;29973;43.742;1.236;2023-09-30T01:52:13;19.27;;;6.88;;
44276;SDS011;29973;43.742;1.236;2023-09-30T01:54:39;18.92;;;6.93;;
44276;SDS011;29973;43.742;1.236;2023-09-30T01:57:05;12.25;;;5.75;;
44276;SDS011;29973;43.742;1.236;2023-09-30T01:59:31;18.38;;;6.82;;
44276;SDS011;29973;43.742;1.236;2023-09-30T02:01:56;24.10;;;7.35;;
44276;SDS011;29973;43.742;1.236;2023-09-30T02:04:22;15.85;;;6.63;;
44276;SDS011;29973;43.742;1.236;2023-09-30T02:06:48;18.92;;;6.43;;
44276;SDS011;29973;43.742;1.236;2023-09-30T02:09:13;18.55;;;7.22;;
44276;SDS011;29973;43.742;1.236;2023-09-30T02:11:39;16.40;;;6.20;;
44276;SDS011;29973;43.742;1.236;2023-09-30T02:14:06;21.63;;;6.88;;
44276;SDS011;29973;43.742;1.236;2023-09-30T02:16:32;18.00;;;6.57;;
44276;SDS011;29973;43.742;1.236;2023-09-30T02:18:58;18.40;;;7.05;;
44276;SDS011;29973;43.742;1.236;2023-09-30T02:21:24;16.25;;;6.45;;
44276;SDS011;29973;43.742;1.236;2023-09-30T02:23:49;18.63;;;7.10;;
44276;SDS011;29973;43.742;1.236;2023-09-30T02:26:20;17.55;;;6.85;;
44276;SDS011;29973;43.742;1.236;2023-09-30T02:28:46;20.48;;;7.35;;
44276;SDS011;29973;43.742;1.236;2023-09-30T02:31:12;16.92;;;6.45;;
44276;SDS011;29973;43.742;1.236;2023-09-30T02:33:38;23.38;;;7.45;;
44276;SDS011;29973;43.742;1.236;2023-09-30T02:36:07;19.92;;;7.35;;
44276;SDS011;29973;43.742;1.236;2023-09-30T02:38:33;18.80;;;6.68;;
44276;SDS011;29973;43.742;1.236;2023-09-30T02:41:02;16.95;;;6.25;;
44276;SDS011;29973;43.742;1.236;2023-09-30T02:43:28;22.05;;;7.10;;
44276;SDS011;29973;43.742;1.236;2023-09-30T02:45:54;24.88;;;7.68;;
44276;SDS011;29973;43.742;1.236;2023-09-30T02:48:20;19.65;;;7.68;;
44276;SDS011;29973;43.742;1.236;2023-09-30T02:50:45;17.75;;;7.07;;
44276;SDS011;29973;43.742;1.236;2023-09-30T02:53:12;20.55;;;9.07;;
44276;SDS011;29973;43.742;1.236;2023-09-30T02:55:38;17.52;;;7.18;;
44276;SDS011;29973;43.742;1.236;2023-09-30T02:58:04;17.10;;;7.80;;
44276;SDS011;29973;43.742;1.236;2023-09-30T03:00:30;21.17;;;7.38;;
44276;SDS011;29973;43.742;1.236;2023-09-30T03:02:59;24.08;;;7.20;;
44276;SDS011;29973;43.742;1.236;2023-09-30T03:05:26;19.48;;;7.38;;
44276;SDS011;29973;43.742;1.236;2023-09-30T03:07:53;22.17;;;6.85;;
44276;SDS011;29973;43.742;1.236;2023-09-30T03:10:19;22.52;;;7.68;;
44276;SDS011;29973;43.742;1.236;2023-09-30T03:12:51;19.10;;;7.13;;
44276;SDS011;29973;43.742;1.236;2023-09-30T03:15:18;21.23;;;7.13;;
44276;SDS011;29973;43.742;1.236;2023-09-30T03:17:44;19.63;;;7.40;;
44276;SDS011;29973;43.742;1.236;2023-09-30T03:20:10;21.58;;;7.53;;
44276;SDS011;29973;43.742;1.236;2023-09-30T03:22:43;21.33;;;7.00;;
44276;SDS011;29973;43.742;1.236;2023-09-30T03:25:12;24.45;;;8.07;;
44276;SDS011;29973;43.742;1.236;2023-09-30T03:27:40;22.85;;;7.57;;
44276;SDS011;29973;43.742;1.236;2023-09-30T03:30:06;18.92;;;6.30;;
44276;SDS011;29973;43.742;1.236;2023-09-30T03:32:33;21.20;;;7.95;;
44276;SDS011;29973;43.742;1.236;2023-09-30T03:35:01;25.50;;;6.93;;
44276;SDS011;29973;43.742;1.236;2023-09-30T03:37:27;22.13;;;6.30;;
44276;SDS011;29973;43.742;1.236;2023-09-30T03:39:54;20.25;;;6.72;;
44276;SDS011;29973;43.742;1.236;2023-09-30T03:42:20;21.95;;;6.78;;
44276;SDS011;29973;43.742;1.236;2023-09-30T03:44:46;17.25;;;6.93;;
44276;SDS011;29973;43.742;1.236;2023-09-30T03:47:14;18.60;;;6.55;;
44276;SDS011;29973;43.742;1.236;2023-09-30T03:49:40;16.65;;;6.75;;
44276;SDS011;29973;43.742;1.236;2023-09-30T03:52:07;20.65;;;7.85;;
44276;SDS011;29973;43.742;1.236;2023-09-30T03:54:34;20.27;;;7.03;;
44276;SDS011;29973;43.742;1.236;2023-09-30T03:57:00;18.65;;;6.78;;
44276;SDS011;29973;43.742;1.236;2023-09-30T03:59:26;19.38;;;6.88;;
44276;SDS011;29973;43.742;1.236;2023-09-30T04:01:52;16.75;;;6.75;;
44276;SDS011;29973;43.742;1.236;2023-09-30T04:04:21;27.63;;;7.10;;
44276;SDS011;29973;43.742;1.236;2023-09-30T04:06:47;17.52;;;7.18;;
44276;SDS011;29973;43.742;1.236;2023-09-30T04:09:13;16.08;;;6.20;;
44276;SDS011;29973;43.742;1.236;2023-09-30T04:11:40;17.70;;;6.78;;
44276;SDS011;29973;43.742;1.236;2023-09-30T04:14:07;18.17;;;7.25;;
44276;SDS011;29973;43.742;1.236;2023-09-30T04:16:34;25.63;;;6.85;;
44276;SDS011;29973;43.742;1.236;2023-09-30T04:19:02;18.98;;;6.93;;
44276;SDS011;29973;43.742;1.236;2023-09-30T04:21:28;19.48;;;6.68;;
44276;SDS011;29973;43.742;1.236;2023-09-30T04:23:58;19.58;;;7.18;;
44276;SDS011;29973;43.742;1.236;2023-09-30T04:26:24;13.38;;;6.07;;
44276;SDS011;29973;43.742;1.236;2023-09-30T04:28:50;19.67;;;7.28;;
44276;SDS011;29973;43.742;1.236;2023-09-30T04:31:16;19.38;;;7.38;;
44276;SDS011;29973;43.742;1.236;2023-09-30T04:33:43;20.73;;;6.88;;
44276;SDS011;29973;43.742;1.236;2023-09-30T04:36:09;17.70;;;6.57;;
44276;SDS011;29973;43.742;1.236;2023-09-30T04:38:35;20.80;;;7.10;;
44276;SDS011;29973;43.742;1.236;2023-09-30T04:41:02;19.95;;;6.40;;
44276;SDS011;29973;43.742;1.236;2023-09-30T04:43:32;15.57;;;6.22;;
44276;SDS011;29973;43.742;1.236;2023-09-30T04:45:58;23.35;;;7.38;;
44276;SDS011;29973;43.742;1.236;2023-09-30T04:48:24;20.40;;;7.05;;
44276;SDS011;29973;43.742;1.236;2023-09-30T04:50:50;21.48;;;7.85;;
44276;SDS011;29973;43.742;1.236;2023-09-30T04:53:16;21.02;;;6.80;;
44276;SDS011;29973;43.742;1.236;2023-09-30T04:55:43;17.58;;;7.40;;
44276;SDS011;29973;43.742;1.236;2023-09-30T04:58:10;22.77;;;7.18;;
44276;SDS011;29973;43.742;1.236;2023-09-30T05:00:37;19.02;;;7.70;;
44276;SDS011;29973;43.742;1.236;2023-09-30T05:03:04;18.92;;;7.45;;
44276;SDS011;29973;43.742;1.236;2023-09-30T05:05:30;19.55;;;7.32;;
44276;SDS011;29973;43.742;1.236;2023-09-30T05:07:56;21.95;;;7.70;;
44276;SDS011;29973;43.742;1.236;2023-09-30T05:10:23;20.20;;;6.75;;
44276;SDS011;29973;43.742;1.236;2023-09-30T05:12:49;29.08;;;7.65;;
44276;SDS011;29973;43.742;1.236;2023-09-30T05:15:19;19.92;;;7.72;;
44276;SDS011;29973;43.742;1.236;2023-09-30T05:17:45;20.38;;;6.78;;
44276;SDS011;29973;43.742;1.236;2023-09-30T05:20:11;28.05;;;8.07;;
44276;SDS011;29973;43.742;1.236;2023-09-30T05:22:38;21.75;;;6.95;;
44276;SDS011;29973;43.742;1.236;2023-09-30T05:25:06;24.73;;;7.72;;
44276;SDS011;29973;43.742;1.236;2023-09-30T05:27:32;19.83;;;6.88;;
44276;SDS011;29973;43.742;1.236;2023-09-30T05:29:58;18.38;;;6.70;;
44276;SDS011;29973;43.742;1.236;2023-09-30T05:32:24;20.58;;;7.63;;
44276;SDS011;29973;43.742;1.236;2023-09-30T05:34:52;22.45;;;7.30;;
44276;SDS011;29973;43.742;1.236;2023-09-30T05:37:19;23.15;;;7.15;;
44276;SDS011;29973;43.742;1.236;2023-09-30T05:39:47;17.48;;;7.50;;
44276;SDS011;29973;43.742;1.236;2023-09-30T05:42:14;19.15;;;7.32;;
44276;SDS011;29973;43.742;1.236;2023-09-30T05:44:41;21.92;;;6.95;;
44276;SDS011;29973;43.742;1.236;2023-09-30T05:47:08;17.98;;;6.82;;
44276;SDS011;29973;43.742;1.236;2023-09-30T05:49:35;18.48;;;7.03;;
44276;SDS011;29973;43.742;1.236;2023-09-30T05:52:02;20.40;;;7.00;;
44276;SDS011;29973;43.742;1.236;2023-09-30T05:54:27;19.55;;;6.82;;
44276;SDS011;29973;43.742;1.236;2023-09-30T05:56:53;15.48;;;6.38;;
44276;SDS011;29973;43.742;1.236;2023-09-30T05:59:20;20.50;;;6.28;;
44276;SDS011;29973;43.742;1.236;2023-09-30T06:01:45;19.42;;;6.68;;
44276;SDS011;29973;43.742;1.236;2023-09-30T06:04:11;20.38;;;6.70;;
44276;SDS011;29973;43.742;1.236;2023-09-30T06:06:37;17.83;;;6.32;;
44276;SDS011;29973;43.742;1.236;2023-09-30T06:09:03;22.25;;;7.38;;
44276;SDS011;29973;43.742;1.236;2023-09-30T06:11:33;26.50;;;7.95;;
44276;SDS011;29973;43.742;1.236;2023-09-30T06:13:59;19.02;;;6.45;;
44276;SDS011;29973;43.742;1.236;2023-09-30T06:16:26;16.45;;;6.25;;
44276;SDS011;29973;43.742;1.236;2023-09-30T06:18:53;18.45;;;7.13;;
44276;SDS011;29973;43.742;1.236;2023-09-30T06:21:19;20.85;;;6.88;;
44276;SDS011;29973;43.742;1.236;2023-09-30T06:23:49;17.80;;;6.57;;
44276;SDS011;29973;43.742;1.236;2023-09-30T06:26:18;17.85;;;6.07;;
44276;SDS011;29973;43.742;1.236;2023-09-30T06:28:44;22.15;;;6.70;;
44276;SDS011;29973;43.742;1.236;2023-09-30T06:31:10;17.17;;;7.00;;
44276;SDS011;29973;43.742;1.236;2023-09-30T06:33:36;15.95;;;6.80;;
44276;SDS011;29973;43.742;1.236;2023-09-30T06:36:08;16.63;;;6.57;;
44276;SDS011;29973;43.742;1.236;2023-09-30T06:38:39;17.45;;;6.47;;
44276;SDS011;29973;43.742;1.236;2023-09-30T06:41:07;18.80;;;6.90;;
44276;SDS011;29973;43.742;1.236;2023-09-30T06:43:33;18.52;;;6.10;;
44276;SDS011;29973;43.742;1.236;2023-09-30T06:46:07;14.43;;;6.50;;
44276;SDS011;29973;43.742;1.236;2023-09-30T06:48:34;12.88;;;5.93;;
44276;SDS011;29973;43.742;1.236;2023-09-30T06:51:00;19.08;;;6.35;;
44276;SDS011;29973;43.742;1.236;2023-09-30T06:53:26;18.17;;;6.80;;
44276;SDS011;29973;43.742;1.236;2023-09-30T06:55:52;21.58;;;6.57;;
44276;SDS011;29973;43.742;1.236;2023-09-30T06:58:18;16.48;;;6.80;;
44276;SDS011;29973;43.742;1.236;2023-09-30T07:00:49;26.08;;;7.10;;
44276;SDS011;29973;43.742;1.236;2023-09-30T07:03:16;17.33;;;6.93;;
44276;SDS011;29973;43.742;1.236;2023-09-30T07:05:42;16.60;;;5.97;;
44276;SDS011;29973;43.742;1.236;2023-09-30T07:08:09;21.25;;;6.25;;
44276;SDS011;29973;43.742;1.236;2023-09-30T07:10:35;16.33;;;5.57;;
44276;SDS011;29973;43.742;1.236;2023-09-30T07:13:02;12.43;;;5.45;;
44276;SDS011;29973;43.742;1.236;2023-09-30T07:15:29;15.65;;;5.40;;
44276;SDS011;29973;43.742;1.236;2023-09-30T07:17:54;16.40;;;5.53;;
44276;SDS011;29973;43.742;1.236;2023-09-30T07:20:22;17.10;;;5.50;;
44276;SDS011;29973;43.742;1.236;2023-09-30T07:22:47;14.18;;;5.22;;
44276;SDS011;29973;43.742;1.236;2023-09-30T07:25:13;19.55;;;6.20;;
44276;SDS011;29973;43.742;1.236;2023-09-30T07:27:45;11.27;;;5.53;;
44276;SDS011;29973;43.742;1.236;2023-09-30T07:30:11;11.65;;;5.30;;
44276;SDS011;29973;43.742;1.236;2023-09-30T07:32:43;13.93;;;6.20;;
44276;SDS011;29973;43.742;1.236;2023-09-30T07:35:10;11.75;;;5.38;;
44276;SDS011;29973;43.742;1.236;2023-09-30T07:37:43;12.30;;;5.25;;
44276;SDS011;29973;43.742;1.236;2023-09-30T07:40:09;17.15;;;6.47;;
44276;SDS011;29973;43.742;1.236;2023-09-30T07:42:36;12.90;;;5.43;;
44276;SDS011;29973;43.742;1.236;2023-09-30T07:45:02;14.68;;;5.72;;
44276;SDS011;29973;43.742;1.236;2023-09-30T07:47:31;15.50;;;5.38;;
44276;SDS011;29973;43.742;1.236;2023-09-30T07:49:59;16.92;;;5.07;;
44276;SDS011;29973;43.742;1.236;2023-09-30T07:52:27;13.13;;;5.35;;
44276;SDS011;29973;43.742;1.236;2023-09-30T07:54:52;16.20;;;5.32;;
44276;SDS011;29973;43.742;1.236;2023-09-30T07:57:18;16.85;;;6.35;;
44276;SDS011;29973;43.742;1.236;2023-09-30T07:59:45;13.38;;;5.07;;
44276;SDS011;29973;43.742;1.236;2023-09-30T08:02:11;11.73;;;5.10;;
44276;SDS011;29973;43.742;1.236;2023-09-30T08:04:36;17.40;;;4.60;;
44276;SDS011;29973;43.742;1.236;2023-09-30T08:07:02;14.32;;;5.75;;
44276;SDS011;29973;43.742;1.236;2023-09-30T08:09:28;11.32;;;5.32;;
44276;SDS011;29973;43.742;1.236;2023-09-30T08:11:53;15.00;;;6.03;;
44276;SDS011;29973;43.742;1.236;2023-09-30T08:14:19;14.82;;;6.13;;
44276;SDS011;29973;43.742;1.236;2023-09-30T08:16:45;15.32;;;6.07;;
44276;SDS011;29973;43.742;1.236;2023-09-30T08:19:10;21.27;;;6.15;;
44276;SDS011;29973;43.742;1.236;2023-09-30T08:21:36;14.70;;;5.60;;
44276;SDS011;29973;43.742;1.236;2023-09-30T08:24:02;12.57;;;5.07;;
44276;SDS011;29973;43.742;1.236;2023-09-30T08:26:28;16.75;;;6.47;;
44276;SDS011;29973;43.742;1.236;2023-09-30T08:28:54;16.70;;;5.55;;
44276;SDS011;29973;43.742;1.236;2023-09-30T08:31:20;14.73;;;5.75;;
44276;SDS011;29973;43.742;1.236;2023-09-30T08:33:46;13.98;;;5.78;;
44276;SDS011;29973;43.742;1.236;2023-09-30T08:36:12;11.90;;;4.78;;
44276;SDS011;29973;43.742;1.236;2023-09-30T08:38:39;13.20;;;5.32;;
44276;SDS011;29973;43.742;1.236;2023-09-30T08:41:06;14.25;;;5.50;;
44276;SDS011;29973;43.742;1.236;2023-09-30T08:43:36;12.95;;;5.00;;
44276;SDS011;29973;43.742;1.236;2023-09-30T08:46:04;15.32;;;5.85;;
44276;SDS011;29973;43.742;1.236;2023-09-30T08:48:31;11.52;;;5.47;;
44276;SDS011;29973;43.742;1.236;2023-09-30T08:50:58;14.13;;;5.28;;
44276;SDS011;29973;43.742;1.236;2023-09-30T08:53:25;13.05;;;5.32;;
44276;SDS011;29973;43.742;1.236;2023-09-30T08:55:55;13.32;;;5.13;;
44276;SDS011;29973;43.742;1.236;2023-09-30T08:58:26;11.57;;;5.35;;
44276;SDS011;29973;43.742;1.236;2023-09-30T09:00:53;12.82;;;4.38;;
44276;SDS011;29973;43.742;1.236;2023-09-30T09:03:19;12.43;;;4.68;;
44276;SDS011;29973;43.742;1.236;2023-09-30T09:05:46;12.73;;;4.20;;
44276;SDS011;29973;43.742;1.236;2023-09-30T09:08:19;11.02;;;4.20;;
44276;SDS011;29973;43.742;1.236;2023-09-30T09:13:29;11.65;;;4.28;;
44276;SDS011;29973;43.742;1.236;2023-09-30T09:16:21;8.75;;;3.72;;
44276;SDS011;29973;43.742;1.236;2023-09-30T09:18:48;15.05;;;4.05;;
44276;SDS011;29973;43.742;1.236;2023-09-30T09:21:17;12.30;;;4.22;;
44276;SDS011;29973;43.742;1.236;2023-09-30T09:29:02;12.82;;;4.03;;
44276;SDS011;29973;43.742;1.236;2023-09-30T09:31:32;11.23;;;4.28;;
44276;SDS011;29973;43.742;1.236;2023-09-30T09:33:59;7.50;;;3.13;;
44276;SDS011;29973;43.742;1.236;2023-09-30T09:36:39;9.13;;;3.38;;
44276;SDS011;29973;43.742;1.236;2023-09-30T09:39:06;8.32;;;3.28;;
44276;SDS011;29973;43.742;1.236;2023-09-30T09:41:32;11.85;;;3.83;;
44276;SDS011;29973;43.742;1.236;2023-09-30T09:43:59;13.25;;;4.53;;
44276;SDS011;29973;43.742;1.236;2023-09-30T09:46:25;7.40;;;3.72;;
44276;SDS011;29973;43.742;1.236;2023-09-30T09:48:53;7.80;;;2.60;;
44276;SDS011;29973;43.742;1.236;2023-09-30T09:51:22;7.40;;;2.75;;
44276;SDS011;29973;43.742;1.236;2023-09-30T09:53:51;10.23;;;3.10;;
44276;SDS011;29973;43.742;1.236;2023-09-30T09:56:20;8.95;;;2.40;;
44276;SDS011;29973;43.742;1.236;2023-09-30T09:58:46;5.80;;;2.25;;
44276;SDS011;29973;43.742;1.236;2023-09-30T10:01:13;3.38;;;1.20;;
44276;SDS011;29973;43.742;1.236;2023-09-30T10:03:39;4.22;;;1.65;;
44276;SDS011;29973;43.742;1.236;2023-09-30T10:06:06;4.45;;;1.90;;
44276;SDS011;29973;43.742;1.236;2023-09-30T10:08:37;4.63;;;1.92;;
44276;SDS011;29973;43.742;1.236;2023-09-30T10:11:07;2.70;;;1.23;;
44276;SDS011;29973;43.742;1.236;2023-09-30T10:24:41;3.83;;;2.13;;
44276;SDS011;29973;43.742;1.236;2023-09-30T10:37:52;5.13;;;1.77;;
44276;SDS011;29973;43.742;1.236;2023-09-30T10:40:47;4.60;;;2.10;;
44276;SDS011;29973;43.742;1.236;2023-09-30T10:45:58;4.00;;;2.20;;
44276;SDS011;29973;43.742;1.236;2023-09-30T10:50:54;4.95;;;1.90;;
44276;SDS011;29973;43.742;1.236;2023-09-30T10:53:25;4.28;;;1.83;;
44276;SDS011;29973;43.742;1.236;2023-09-30T10:55:59;3.42;;;1.98;;
44276;SDS011;29973;43.742;1.236;2023-09-30T10:58:41;3.17;;;1.85;;
44276;SDS011;29973;43.742;1.236;2023-09-30T11:01:12;10.02;;;2.20;;
44276;SDS011;29973;43.742;1.236;2023-09-30T11:03:39;8.40;;;2.35;;
44276;SDS011;29973;43.742;1.236;2023-09-30T11:06:06;5.78;;;2.30;;
44276;SDS011;29973;43.742;1.236;2023-09-30T11:08:32;4.85;;;2.22;;
44276;SDS011;29973;43.742;1.236;2023-09-30T11:10:59;3.25;;;2.10;;
44276;SDS011;29973;43.742;1.236;2023-09-30T11:13:32;5.57;;;2.28;;
44276;SDS011;29973;43.742;1.236;2023-09-30T11:16:03;4.60;;;2.60;;
44276;SDS011;29973;43.742;1.236;2023-09-30T11:18:33;4.80;;;2.40;;
44276;SDS011;29973;43.742;1.236;2023-09-30T11:21:11;4.85;;;2.22;;
44276;SDS011;29973;43.742;1.236;2023-09-30T11:23:38;5.57;;;2.28;;
44276;SDS011;29973;43.742;1.236;2023-09-30T11:26:06;3.38;;;2.00;;
44276;SDS011;29973;43.742;1.236;2023-09-30T11:28:38;3.25;;;2.05;;
44276;SDS011;29973;43.742;1.236;2023-09-30T11:31:10;4.45;;;2.33;;
44276;SDS011;29973;43.742;1.236;2023-09-30T11:33:48;4.03;;;2.10;;
44276;SDS011;29973;43.742;1.236;2023-09-30T11:36:15;3.75;;;1.90;;
44276;SDS011;29973;43.742;1.236;2023-09-30T11:38:46;5.32;;;2.10;;
44276;SDS011;29973;43.742;1.236;2023-09-30T11:41:14;4.20;;;2.20;;
44276;SDS011;29973;43.742;1.236;2023-09-30T11:43:57;8.43;;;2.45;;
44276;SDS011;29973;43.742;1.236;2023-09-30T11:46:54;6.15;;;2.30;;
44276;SDS011;29973;43.742;1.236;2023-09-30T11:51:57;4.55;;;2.33;;
44276;SDS011;29973;43.742;1.236;2023-09-30T11:54:32;6.15;;;2.10;;
44276;SDS011;29973;43.742;1.236;2023-09-30T11:57:02;3.72;;;2.10;;
44276;SDS011;29973;43.742;1.236;2023-09-30T11:59:28;3.60;;;1.90;;
44276;SDS011;29973;43.742;1.236;2023-09-30T12:01:54;5.07;;;2.05;;
44276;SDS011;29973;43.742;1.236;2023-09-30T12:04:20;5.63;;;2.03;;
44276;SDS011;29973;43.742;1.236;2023-09-30T12:06:46;2.88;;;1.83;;
44276;SDS011;29973;43.742;1.236;2023-09-30T12:09:16;4.88;;;1.92;;
44276;SDS011;29973;43.742;1.236;2023-09-30T12:11:47;4.68;;;1.92;;
44276;SDS011;29973;43.742;1.236;2023-09-30T12:14:16;4.17;;;1.80;;
44276;SDS011;29973;43.742;1.236;2023-09-30T12:16:42;4.70;;;1.88;;
44276;SDS011;29973;43.742;1.236;2023-09-30T12:19:12;4.35;;;2.00;;
44276;SDS011;29973;43.742;1.236;2023-09-30T12:21:43;4.13;;;2.03;;
44276;SDS011;29973;43.742;1.236;2023-09-30T12:24:11;3.83;;;2.03;;
44276;SDS011;29973;43.742;1.236;2023-09-30T12:26:41;4.25;;;1.98;;
44276;SDS011;29973;43.742;1.236;2023-09-30T12:29:22;3.58;;;2.08;;
44276;SDS011;29973;43.742;1.236;2023-09-30T12:31:49;8.00;;;2.22;;
44276;SDS011;29973;43.742;1.236;2023-09-30T12:34:17;3.47;;;1.97;;
44276;SDS011;29973;43.742;1.236;2023-09-30T12:36:43;5.85;;;2.00;;
44276;SDS011;29973;43.742;1.236;2023-09-30T12:39:09;5.45;;;1.95;;
44276;SDS011;29973;43.742;1.236;2023-09-30T12:41:40;4.13;;;2.10;;
44276;SDS011;29973;43.742;1.236;2023-09-30T12:44:07;2.95;;;1.65;;
44276;SDS011;29973;43.742;1.236;2023-09-30T12:46:33;3.00;;;1.90;;
44276;SDS011;29973;43.742;1.236;2023-09-30T12:49:01;6.10;;;1.80;;
44276;SDS011;29973;43.742;1.236;2023-09-30T12:51:28;3.97;;;1.60;;
44276;SDS011;29973;43.742;1.236;2023-09-30T12:53:54;3.55;;;1.85;;
44276;SDS011;29973;43.742;1.236;2023-09-30T12:56:20;5.40;;;1.80;;
44276;SDS011;29973;43.742;1.236;2023-09-30T12:58:46;3.95;;;1.65;;
44276;SDS011;29973;43.742;1.236;2023-09-30T13:01:12;3.63;;;1.80;;
44276;SDS011;29973;43.742;1.236;2023-09-30T13:03:37;8.25;;;2.10;;
44276;SDS011;29973;43.742;1.236;2023-09-30T13:06:03;3.22;;;2.00;;
44276;SDS011;29973;43.742;1.236;2023-09-30T13:08:29;3.20;;;1.52;;
44276;SDS011;29973;43.742;1.236;2023-09-30T13:11:02;2.95;;;1.45;;
44276;SDS011;29973;43.742;1.236;2023-09-30T13:13:31;8.57;;;1.60;;
44276;SDS011;29973;43.742;1.236;2023-09-30T13:16:01;4.57;;;2.08;;
44276;SDS011;29973;43.742;1.236;2023-09-30T13:18:27;3.10;;;1.85;;
44276;SDS011;29973;43.742;1.236;2023-09-30T13:20:53;2.55;;;1.90;;
44276;SDS011;29973;43.742;1.236;2023-09-30T13:23:18;5.57;;;1.83;;
44276;SDS011;29973;43.742;1.236;2023-09-30T13:25:44;3.20;;;1.73;;
44276;SDS011;29973;43.742;1.236;2023-09-30T13:28:10;2.58;;;1.40;;
44276;SDS011;29973;43.742;1.236;2023-09-30T13:30:37;4.80;;;1.92;;
44276;SDS011;29973;43.742;1.236;2023-09-30T13:33:03;2.80;;;2.00;;
44276;SDS011;29973;43.742;1.236;2023-09-30T13:35:29;2.75;;;1.67;;
44276;SDS011;29973;43.742;1.236;2023-09-30T13:37:55;4.20;;;1.58;;
44276;SDS011;29973;43.742;1.236;2023-09-30T13:40:20;3.03;;;1.55;;
44276;SDS011;29973;43.742;1.236;2023-09-30T13:42:46;6.25;;;2.38;;
44276;SDS011;29973;43.742;1.236;2023-09-30T13:45:12;3.67;;;2.10;;
44276;SDS011;29973;43.742;1.236;2023-09-30T13:47:38;3.42;;;1.55;;
44276;SDS011;29973;43.742;1.236;2023-09-30T13:50:04;4.50;;;1.60;;
44276;SDS011;29973;43.742;1.236;2023-09-30T13:52:32;2.95;;;1.65;;
44276;SDS011;29973;43.742;1.236;2023-09-30T13:54:59;3.35;;;1.77;;
44276;SDS011;29973;43.742;1.236;2023-09-30T13:57:24;2.83;;;1.40;;
44276;SDS011;29973;43.742;1.236;2023-09-30T13:59:50;3.08;;;1.85;;
44276;SDS011;29973;43.742;1.236;2023-09-30T14:02:16;3.22;;;1.83;;
44276;SDS011;29973;43.742;1.236;2023-09-30T14:04:42;3.75;;;1.83;;
44276;SDS011;29973;43.742;1.236;2023-09-30T14:07:09;3.13;;;1.80;;
44276;SDS011;29973;43.742;1.236;2023-09-30T14:09:34;2.50;;;1.88;;
44276;SDS011;29973;43.742;1.236;2023-09-30T14:12:01;2.80;;;1.70;;
44276;SDS011;29973;43.742;1.236;2023-09-30T14:14:30;3.13;;;1.73;;
44276;SDS011;29973;43.742;1.236;2023-09-30T14:17:01;4.50;;;1.60;;
44276;SDS011;29973;43.742;1.236;2023-09-30T14:19:33;6.22;;;1.88;;
44276;SDS011;29973;43.742;1.236;2023-09-30T14:22:00;3.65;;;2.05;;
44276;SDS011;29973;43.742;1.236;2023-09-30T14:24:26;3.25;;;1.70;;
44276;SDS011;29973;43.742;1.236;2023-09-30T14:26:51;6.82;;;1.70;;
44276;SDS011;29973;43.742;1.236;2023-09-30T14:29:17;3.45;;;1.50;;
44276;SDS011;29973;43.742;1.236;2023-09-30T14:31:43;2.65;;;1.52;;
44276;SDS011;29973;43.742;1.236;2023-09-30T14:34:08;2.95;;;1.80;;
44276;SDS011;29973;43.742;1.236;2023-09-30T14:36:34;3.65;;;1.52;;
44276;SDS011;29973;43.742;1.236;2023-09-30T14:39:00;3.28;;;1.70;;
44276;SDS011;29973;43.742;1.236;2023-09-30T14:41:26;3.92;;;1.73;;
44276;SDS011;29973;43.742;1.236;2023-09-30T14:43:51;3.10;;;1.80;;
44276;SDS011;29973;43.742;1.236;2023-09-30T14:46:17;4.22;;;1.88;;
44276;SDS011;29973;43.742;1.236;2023-09-30T14:48:43;3.13;;;1.95;;
44276;SDS011;29973;43.742;1.236;2023-09-30T14:51:09;2.63;;;1.70;;
44276;SDS011;29973;43.742;1.236;2023-09-30T14:53:35;3.10;;;1.40;;
44276;SDS011;29973;43.742;1.236;2023-09-30T14:56:00;3.03;;;1.70;;
44276;SDS011;29973;43.742;1.236;2023-09-30T14:58:26;4.63;;;1.80;;
44276;SDS011;29973;43.742;1.236;2023-09-30T15:00:52;3.72;;;1.80;;
44276;SDS011;29973;43.742;1.236;2023-09-30T15:03:18;3.58;;;1.80;;
44276;SDS011;29973;43.742;1.236;2023-09-30T15:05:46;5.10;;;1.58;;
44276;SDS011;29973;43.742;1.236;2023-09-30T15:08:14;3.88;;;1.63;;
44276;SDS011;29973;43.742;1.236;2023-09-30T15:10:40;3.85;;;1.70;;
44276;SDS011;29973;43.742;1.236;2023-09-30T15:13:06;5.05;;;1.70;;
44276;SDS011;29973;43.742;1.236;2023-09-30T15:15:35;5.32;;;1.75;;
44276;SDS011;29973;43.742;1.236;2023-09-30T15:18:01;2.83;;;1.40;;